createdAt,value
2023-03-18T00:04:33.000Z,14.274
2023-03-18T00:08:29.000Z,4.869
2023-03-18T00:11:00.000Z,2.234
2023-03-18T00:13:29.000Z,5.663
2023-03-18T00:15:57.000Z,7.738
2023-03-18T00:19:10.000Z,6.147
2023-03-18T00:21:03.000Z,6.361
2023-03-18T00:23:25.000Z,6.852
2023-03-18T00:25:50.000Z,6.479
2023-03-18T00:28:13.000Z,2.959
2023-03-18T00:30:35.000Z,2.234
2023-03-18T00:32:58.000Z,8.681
2023-03-18T00:35:21.000Z,6.262
2023-03-18T00:37:43.000Z,4.821
2023-03-18T00:40:04.000Z,5.657
2023-03-18T00:44:46.000Z,9.736
2023-03-18T00:47:07.000Z,5.577
2023-03-18T00:49:28.000Z,5.57
2023-03-18T00:51:49.000Z,3.644
2023-03-18T00:54:12.000Z,6.1
2023-03-18T00:56:34.000Z,7.043
2023-03-18T00:58:57.000Z,8.78
2023-03-18T01:01:20.000Z,6.435
2023-03-18T01:03:41.000Z,2.872
2023-03-18T01:06:03.000Z,10.92
2023-03-18T01:08:24.000Z,8.845
2023-03-18T01:10:46.000Z,6.767
2023-03-18T01:13:08.000Z,6.338
2023-03-18T01:15:30.000Z,9.106
2023-03-18T01:17:52.000Z,5.485
2023-03-18T01:20:12.000Z,7.635
2023-03-18T01:22:34.000Z,6.162
2023-03-18T01:24:57.000Z,4.77
2023-03-18T01:27:20.000Z,6.806
2023-03-18T01:29:42.000Z,6.181
2023-03-18T01:32:03.000Z,4.176
2023-03-18T01:34:24.000Z,11.449
2023-03-18T01:36:46.000Z,4.281
2023-03-18T01:39:09.000Z,6.189
2023-03-18T01:41:32.000Z,6.401
2023-03-18T01:43:55.000Z,5.58
2023-03-18T01:46:18.000Z,4.907
2023-03-18T01:48:39.000Z,5.784
2023-03-18T01:51:00.000Z,6.084
2023-03-18T01:53:21.000Z,5.164
2023-03-18T01:55:43.000Z,6.878
2023-03-18T01:58:06.000Z,7.931
2023-03-18T02:00:27.000Z,4.902
2023-03-18T02:02:49.000Z,4.817
2023-03-18T02:05:10.000Z,4.445
2023-03-18T02:07:32.000Z,5.683
2023-03-18T02:09:54.000Z,6.307
2023-03-18T02:12:17.000Z,3.653
2023-03-18T02:14:39.000Z,6.539
2023-03-18T02:17:01.000Z,8.957
2023-03-18T02:19:22.000Z,4.391
2023-03-18T02:21:43.000Z,8.237
2023-03-18T02:24:06.000Z,4.344
2023-03-18T02:26:28.000Z,11.208
2023-03-18T02:28:49.000Z,5.622
2023-03-18T02:31:10.000Z,5.666
2023-03-18T02:33:32.000Z,4.246
2023-03-18T02:35:54.000Z,5.025
2023-03-18T02:38:17.000Z,5.444
2023-03-18T02:40:39.000Z,6.715
2023-03-18T02:43:01.000Z,5.486
2023-03-18T02:45:22.000Z,4.92
2023-03-18T02:47:44.000Z,7.604
2023-03-18T02:50:06.000Z,7.343
2023-03-18T02:52:29.000Z,4.354
2023-03-18T02:54:53.000Z,6.196
2023-03-18T02:57:16.000Z,6.725
2023-03-18T02:59:39.000Z,5.174
2023-03-18T03:02:02.000Z,8.207
2023-03-18T03:04:22.000Z,6.068
2023-03-18T03:06:44.000Z,2.872
2023-03-18T03:09:06.000Z,7.625
2023-03-18T03:11:28.000Z,6.168
2023-03-18T03:13:50.000Z,6.33
2023-03-18T03:16:13.000Z,5.666
2023-03-18T03:18:34.000Z,3.497
2023-03-18T03:20:55.000Z,6.981
2023-03-18T03:23:18.000Z,9.624
2023-03-18T03:25:40.000Z,6.74
2023-03-18T03:28:03.000Z,6.743
2023-03-18T03:30:25.000Z,6.244
2023-03-18T03:32:48.000Z,9.05
2023-03-18T03:35:08.000Z,7.11
2023-03-18T03:37:30.000Z,6.068
2023-03-18T03:39:53.000Z,4.262
2023-03-18T03:42:15.000Z,4.176
2023-03-18T03:44:39.000Z,3.621
2023-03-18T03:47:01.000Z,5.429
2023-03-18T03:49:24.000Z,8.753
2023-03-18T03:51:45.000Z,14.982
2023-03-18T03:54:06.000Z,6.873
2023-03-18T03:56:29.000Z,6.078
2023-03-18T03:58:51.000Z,8.225
2023-03-18T04:01:14.000Z,8.742
2023-03-18T04:03:35.000Z,6.179
2023-03-18T04:05:56.000Z,2.872
2023-03-18T04:08:18.000Z,4.831
2023-03-18T04:10:40.000Z,3.621
2023-03-18T04:13:03.000Z,6.068
2023-03-18T04:15:25.000Z,8.095
2023-03-18T04:17:48.000Z,5.773
2023-03-18T04:20:09.000Z,6.715
2023-03-18T04:22:29.000Z,4.777
2023-03-18T04:24:52.000Z,5.658
2023-03-18T04:27:14.000Z,5.832
2023-03-18T04:29:36.000Z,8.09
2023-03-18T04:31:59.000Z,6.122
2023-03-18T04:34:21.000Z,6.856
2023-03-18T04:36:42.000Z,6.267
2023-03-18T04:39:03.000Z,6.196
2023-03-18T04:41:25.000Z,6.803
2023-03-18T04:43:48.000Z,4.92
2023-03-18T04:46:10.000Z,6.286
2023-03-18T04:48:32.000Z,10.289
2023-03-18T04:50:53.000Z,6.158
2023-03-18T04:53:15.000Z,7.494
2023-03-18T04:55:36.000Z,5.577
2023-03-18T04:57:59.000Z,7.031
2023-03-18T05:00:22.000Z,8.269
2023-03-18T05:02:44.000Z,3.621
2023-03-18T05:05:06.000Z,4.147
2023-03-18T05:07:26.000Z,5.485
2023-03-18T05:09:48.000Z,6.33
2023-03-18T05:12:11.000Z,8.924
2023-03-18T05:14:33.000Z,6.381
2023-03-18T05:16:56.000Z,4.131
2023-03-18T05:19:19.000Z,5.605
2023-03-18T05:21:41.000Z,8.685
2023-03-18T05:24:01.000Z,6.839
2023-03-18T05:26:23.000Z,4.803
2023-03-18T05:28:45.000Z,2.872
2023-03-18T05:31:07.000Z,5.745
2023-03-18T05:33:28.000Z,6.183
2023-03-18T05:35:49.000Z,6.132
2023-03-18T05:38:11.000Z,7.487
2023-03-18T05:40:33.000Z,5.486
2023-03-18T05:42:55.000Z,5.428
2023-03-18T05:45:19.000Z,5.613
2023-03-18T05:47:41.000Z,6.181
2023-03-18T05:50:12.000Z,5.663
2023-03-18T05:52:34.000Z,2.959
2023-03-18T05:54:57.000Z,6.414
2023-03-18T05:57:20.000Z,9.374
2023-03-18T05:59:43.000Z,3.497
2023-03-18T06:02:05.000Z,6.183
2023-03-18T06:04:26.000Z,6.768
2023-03-18T06:06:48.000Z,6.173
2023-03-18T06:09:10.000Z,7.434
2023-03-18T06:11:32.000Z,9.056
2023-03-18T06:13:55.000Z,8.921
2023-03-18T06:16:18.000Z,12.364
2023-03-18T06:18:40.000Z,19.059
2023-03-18T06:21:00.000Z,19.113
2023-03-18T06:23:22.000Z,10.989
2023-03-18T06:25:45.000Z,4.985
2023-03-18T06:28:08.000Z,4.197
2023-03-18T06:30:30.000Z,4.93
2023-03-18T06:32:53.000Z,8.126
2023-03-18T06:35:16.000Z,4.926
2023-03-18T06:37:37.000Z,2.932
2023-03-18T06:39:58.000Z,7.936
2023-03-18T06:42:19.000Z,4.277
2023-03-18T06:44:42.000Z,5.71
2023-03-18T06:47:05.000Z,7.506
2023-03-18T06:49:27.000Z,7.112
2023-03-18T06:51:49.000Z,4.181
2023-03-18T06:54:10.000Z,5.481
2023-03-18T06:56:32.000Z,7.87
2023-03-18T06:58:54.000Z,4.19
2023-03-18T07:01:17.000Z,8.041
2023-03-18T07:03:39.000Z,6.754
2023-03-18T07:06:01.000Z,5.089
2023-03-18T07:08:22.000Z,4.745
2023-03-18T07:10:43.000Z,4.118
2023-03-18T07:13:05.000Z,4.745
2023-03-18T07:15:28.000Z,9.252
2023-03-18T07:17:51.000Z,8.896
2023-03-18T07:20:13.000Z,4.102
2023-03-18T07:22:35.000Z,6.17
2023-03-18T07:24:56.000Z,7.866
2023-03-18T07:27:17.000Z,6.049
2023-03-18T07:29:40.000Z,5.358
2023-03-18T07:32:03.000Z,10.352
2023-03-18T07:34:26.000Z,5.7
2023-03-18T07:36:48.000Z,8.096
2023-03-18T07:39:09.000Z,5.622
2023-03-18T07:41:30.000Z,5.397
2023-03-18T07:43:51.000Z,5.348
2023-03-18T07:46:13.000Z,4.202
2023-03-18T07:48:35.000Z,4.071
2023-03-18T07:50:58.000Z,6.187
2023-03-18T07:53:20.000Z,4.163
2023-03-18T07:55:42.000Z,6.846
2023-03-18T07:58:03.000Z,4.773
2023-03-18T08:00:25.000Z,6.287
2023-03-18T08:02:47.000Z,5.138
2023-03-18T08:05:11.000Z,4.322
2023-03-18T08:07:33.000Z,4.071
2023-03-18T08:09:56.000Z,7.336
2023-03-18T08:12:18.000Z,8.236
2023-03-18T08:14:39.000Z,5.996
2023-03-18T08:17:00.000Z,5.287
2023-03-18T08:19:22.000Z,6.795
2023-03-18T08:21:45.000Z,5.639
2023-03-18T08:24:07.000Z,2.897
2023-03-18T08:26:28.000Z,3.626
2023-03-18T08:28:51.000Z,6.846
2023-03-18T08:31:12.000Z,4.745
2023-03-18T08:33:34.000Z,4.741
2023-03-18T08:35:58.000Z,4.909
2023-03-18T08:38:21.000Z,4.067
2023-03-18T08:40:48.000Z,2.215
2023-03-18T08:43:10.000Z,4.869
2023-03-18T08:45:33.000Z,8.591
2023-03-18T08:47:55.000Z,4.149
2023-03-18T08:50:18.000Z,6.769
2023-03-18T08:52:40.000Z,7.53
2023-03-18T08:55:00.000Z,2.819
2023-03-18T08:57:22.000Z,4.928
2023-03-18T08:59:43.000Z,7.504
2023-03-18T09:02:06.000Z,4.626
2023-03-18T09:04:28.000Z,2.897
2023-03-18T09:06:50.000Z,7.386
2023-03-18T09:09:11.000Z,2.927
2023-03-18T09:11:34.000Z,6.246
2023-03-18T09:13:57.000Z,4.325
2023-03-18T09:16:21.000Z,4.396
2023-03-18T09:18:47.000Z,2.215
2023-03-18T09:21:12.000Z,4.333
2023-03-18T09:23:37.000Z,7.094
2023-03-18T09:26:02.000Z,6.317
2023-03-18T09:28:27.000Z,4.698
2023-03-18T09:30:54.000Z,4.149
2023-03-18T09:33:20.000Z,7.397
2023-03-18T09:35:45.000Z,2.897
2023-03-18T09:38:09.000Z,5.358
2023-03-18T09:40:33.000Z,8.632
2023-03-18T09:42:57.000Z,3.47
2023-03-18T09:45:22.000Z,5.448
2023-03-18T09:47:48.000Z,5.577
2023-03-18T09:50:13.000Z,3.591
2023-03-18T09:52:39.000Z,5.051
2023-03-18T09:55:05.000Z,6.037
2023-03-18T09:57:31.000Z,4.818
2023-03-18T09:59:56.000Z,4.277
2023-03-18T10:02:21.000Z,5.447
2023-03-18T10:04:45.000Z,4.845
2023-03-18T10:07:11.000Z,2.215
2023-03-18T10:09:37.000Z,4.783
2023-03-18T10:12:04.000Z,2.897
2023-03-18T10:14:31.000Z,4.812
2023-03-18T10:16:55.000Z,3.47
2023-03-18T10:19:19.000Z,5.348
2023-03-18T10:23:29.000Z,2.941
2023-03-18T10:25:53.000Z,4.821
2023-03-18T10:28:19.000Z,4.071
2023-03-18T10:30:42.000Z,4.102
2023-03-18T10:33:08.000Z,2.819
2023-03-18T10:35:30.000Z,3.521
2023-03-18T10:37:57.000Z,4.067
2023-03-18T10:40:18.000Z,4.946
2023-03-18T10:42:41.000Z,4.869
2023-03-18T10:45:03.000Z,3.47
2023-03-18T11:07:28.000Z,2.215
2023-03-18T11:10:04.000Z,2.215
2023-03-18T11:12:41.000Z,2.819
2023-03-18T11:15:11.000Z,2.215
2023-03-18T11:17:40.000Z,2.215
2023-03-18T11:20:12.000Z,2.215
2023-03-18T11:22:42.000Z,2.215
2023-03-18T11:25:17.000Z,2.897
2023-03-18T11:27:48.000Z,2.215
2023-03-18T11:30:17.000Z,2.215
2023-03-18T11:32:48.000Z,2.215
2023-03-18T11:35:19.000Z,2.215
2023-03-18T11:37:49.000Z,2.215
2023-03-18T11:40:20.000Z,2.215
2023-03-18T11:42:50.000Z,2.948
2023-03-18T11:45:22.000Z,2.215
2023-03-18T11:47:52.000Z,3.521
2023-03-18T11:50:35.000Z,2.215
2023-03-18T11:53:06.000Z,2.215
2023-03-18T11:55:37.000Z,2.215
2023-03-18T11:58:13.000Z,2.215
2023-03-18T12:00:42.000Z,2.215
2023-03-18T12:03:13.000Z,2.215
2023-03-18T12:05:42.000Z,2.215
2023-03-18T12:08:14.000Z,2.215
2023-03-18T12:10:55.000Z,2.215
2023-03-18T12:13:28.000Z,2.215
2023-03-18T12:16:37.000Z,2.215
2023-03-18T12:19:13.000Z,2.215
2023-03-18T12:21:43.000Z,2.215
2023-03-18T12:24:15.000Z,2.897
2023-03-18T12:27:21.000Z,3.505
2023-03-18T12:29:55.000Z,3.547
2023-03-18T12:32:24.000Z,4.102
2023-03-18T12:34:53.000Z,3.573
2023-03-18T12:37:23.000Z,2.215
2023-03-18T12:40:45.000Z,2.215
2023-03-18T12:43:15.000Z,2.819
2023-03-18T12:45:43.000Z,2.215
2023-03-18T12:48:12.000Z,2.897
2023-03-18T12:50:43.000Z,4.731
2023-03-18T12:53:10.000Z,2.948
2023-03-18T12:55:39.000Z,2.927
2023-03-18T12:58:09.000Z,4.145
2023-03-18T13:00:35.000Z,2.948
2023-03-18T13:03:04.000Z,4.945
2023-03-18T13:05:34.000Z,2.897
2023-03-18T13:08:01.000Z,5.398
2023-03-18T13:10:28.000Z,2.215
2023-03-18T13:12:59.000Z,2.215
2023-03-18T13:15:26.000Z,2.215
2023-03-18T13:17:55.000Z,4.202
2023-03-18T13:20:25.000Z,3.47
2023-03-18T13:22:52.000Z,3.644
2023-03-18T13:25:18.000Z,4.367
2023-03-18T13:27:48.000Z,2.819
2023-03-18T13:30:16.000Z,4.845
2023-03-18T13:32:43.000Z,2.819
2023-03-18T13:35:14.000Z,3.433
2023-03-18T13:37:41.000Z,3.521
2023-03-18T13:40:13.000Z,2.215
2023-03-18T13:42:42.000Z,2.948
2023-03-18T13:45:10.000Z,3.433
2023-03-18T13:47:40.000Z,2.819
2023-03-18T13:50:15.000Z,2.819
2023-03-18T13:52:44.000Z,4.067
2023-03-18T13:55:13.000Z,5.032
2023-03-18T13:57:44.000Z,3.47
2023-03-18T14:00:14.000Z,2.948
2023-03-18T14:02:44.000Z,2.897
2023-03-18T14:05:13.000Z,4.157
2023-03-18T14:07:42.000Z,2.819
2023-03-18T14:10:17.000Z,2.215
2023-03-18T14:12:49.000Z,6.609
2023-03-18T14:15:17.000Z,2.948
2023-03-18T14:17:47.000Z,3.573
2023-03-18T14:20:23.000Z,4.384
2023-03-18T14:22:53.000Z,2.215
2023-03-18T14:25:33.000Z,5.442
2023-03-18T14:28:03.000Z,2.215
2023-03-18T14:30:33.000Z,4.926
2023-03-18T14:33:05.000Z,6.609
2023-03-18T14:35:40.000Z,2.215
2023-03-18T14:38:12.000Z,2.927
2023-03-18T14:40:49.000Z,2.215
2023-03-18T14:43:20.000Z,3.505
2023-03-18T14:45:50.000Z,2.215
2023-03-18T14:48:19.000Z,2.819
2023-03-18T14:50:52.000Z,2.819
2023-03-18T14:53:21.000Z,3.626
2023-03-18T14:55:53.000Z,4.259
2023-03-18T14:58:29.000Z,3.433
2023-03-18T15:01:06.000Z,3.645
2023-03-18T15:03:36.000Z,2.819
2023-03-18T15:06:12.000Z,4.313
2023-03-18T15:08:42.000Z,2.215
2023-03-18T15:11:12.000Z,4.834
2023-03-18T15:13:42.000Z,2.819
2023-03-18T15:16:11.000Z,2.215
2023-03-18T15:18:40.000Z,4.945
2023-03-18T15:21:12.000Z,4.163
2023-03-18T15:23:40.000Z,2.819
2023-03-18T15:26:12.000Z,5.842
2023-03-18T15:28:40.000Z,3.47
2023-03-18T15:31:10.000Z,2.941
2023-03-18T15:33:39.000Z,4.067
2023-03-18T15:36:08.000Z,2.819
2023-03-18T15:38:39.000Z,2.819
2023-03-18T15:41:08.000Z,4.397
2023-03-18T15:43:38.000Z,3.47
2023-03-18T15:46:07.000Z,3.573
2023-03-18T15:48:36.000Z,2.819
2023-03-18T15:51:06.000Z,2.215
2023-03-18T15:53:33.000Z,4.845
2023-03-18T15:56:03.000Z,3.505
2023-03-18T15:58:32.000Z,4.746
2023-03-18T16:01:01.000Z,2.215
2023-03-18T16:03:31.000Z,6.066
2023-03-18T16:05:58.000Z,3.573
2023-03-18T16:08:27.000Z,2.959
2023-03-18T16:10:56.000Z,6.014
2023-03-18T16:13:24.000Z,2.215
2023-03-18T16:15:53.000Z,3.626
2023-03-18T16:18:23.000Z,4.993
2023-03-18T16:20:51.000Z,2.897
2023-03-18T16:23:21.000Z,2.819
2023-03-18T16:25:48.000Z,3.505
2023-03-18T16:28:22.000Z,3.573
2023-03-18T16:30:49.000Z,2.897
2023-03-18T16:33:20.000Z,3.672
2023-03-18T16:35:48.000Z,4.782
2023-03-18T16:38:15.000Z,2.819
2023-03-18T16:40:44.000Z,2.819
2023-03-18T16:43:13.000Z,5.434
2023-03-18T16:45:40.000Z,6.609
2023-03-18T16:48:09.000Z,3.521
2023-03-18T16:50:38.000Z,7.519
2023-03-18T16:53:05.000Z,4.071
2023-03-18T16:55:33.000Z,2.941
2023-03-18T16:58:03.000Z,2.927
2023-03-18T17:00:30.000Z,4.145
2023-03-18T17:02:58.000Z,6.104
2023-03-18T17:05:30.000Z,4.197
2023-03-18T17:07:57.000Z,4.727
2023-03-18T17:10:27.000Z,4.869
2023-03-18T17:12:55.000Z,2.959
2023-03-18T17:15:22.000Z,6.132
2023-03-18T17:17:51.000Z,5.689
2023-03-18T17:20:20.000Z,5.287
2023-03-18T17:22:47.000Z,4.418
2023-03-18T17:25:16.000Z,15.932
2023-03-18T17:27:45.000Z,19.166
2023-03-18T17:30:12.000Z,48.563
2023-03-18T17:32:41.000Z,119.873
2023-03-18T17:35:14.000Z,59.556
2023-03-18T17:37:43.000Z,20.63
2023-03-18T17:40:13.000Z,14.812
2023-03-18T17:42:40.000Z,12.282
2023-03-18T17:45:10.000Z,14.154
2023-03-18T17:47:39.000Z,11.72
2023-03-18T17:50:06.000Z,15.976
2023-03-18T17:52:36.000Z,11.896
2023-03-18T17:55:05.000Z,7.358
2023-03-18T17:57:31.000Z,7.404
2023-03-18T18:00:00.000Z,4.827
2023-03-18T18:02:29.000Z,6.105
2023-03-18T18:04:56.000Z,4.232
2023-03-18T18:07:29.000Z,6.677
2023-03-18T18:09:56.000Z,4.387
2023-03-18T18:12:25.000Z,2.215
2023-03-18T18:14:54.000Z,5.827
2023-03-18T18:17:23.000Z,6.247
2023-03-18T18:19:53.000Z,8.725
2023-03-18T18:22:21.000Z,6.245
2023-03-18T18:24:49.000Z,11.235
2023-03-18T18:27:19.000Z,11.492
2023-03-18T18:29:48.000Z,8.45
2023-03-18T18:32:18.000Z,4.874
2023-03-18T18:34:47.000Z,10.186
2023-03-18T18:37:14.000Z,5.573
2023-03-18T18:39:45.000Z,6.05
2023-03-18T18:42:12.000Z,7.449
2023-03-18T18:44:41.000Z,10.574
2023-03-18T18:47:11.000Z,6.776
2023-03-18T18:49:38.000Z,6.13
2023-03-18T18:52:07.000Z,3.47
2023-03-18T18:54:37.000Z,6.38
2023-03-18T18:57:04.000Z,6.641
2023-03-18T18:59:34.000Z,2.872
2023-03-18T19:02:02.000Z,4.745
2023-03-18T19:04:31.000Z,7.97
2023-03-18T19:07:02.000Z,6.874
2023-03-18T19:09:28.000Z,5.459
2023-03-18T19:11:58.000Z,4.071
2023-03-18T19:14:27.000Z,6.839
2023-03-18T19:16:54.000Z,9.228
2023-03-18T19:19:24.000Z,4.626
2023-03-18T19:21:54.000Z,9.43
2023-03-18T19:24:22.000Z,8.481
2023-03-18T19:26:52.000Z,9.366
2023-03-18T19:29:19.000Z,8.199
2023-03-18T19:31:50.000Z,4.626
2023-03-18T19:34:20.000Z,7.321
2023-03-18T19:36:47.000Z,5.442
2023-03-18T19:39:15.000Z,6.976
2023-03-18T19:41:46.000Z,8.002
2023-03-18T19:44:13.000Z,9.974
2023-03-18T19:46:44.000Z,3.433
2023-03-18T19:49:11.000Z,3.47
2023-03-18T19:51:39.000Z,6.32
2023-03-18T19:54:09.000Z,6.414
2023-03-18T19:56:36.000Z,5.482
2023-03-18T19:59:03.000Z,5.501
2023-03-18T20:01:32.000Z,9.913
2023-03-18T20:04:01.000Z,4.102
2023-03-18T20:06:29.000Z,12.254
2023-03-18T20:08:58.000Z,8.667
2023-03-18T20:11:26.000Z,6.784
2023-03-18T20:13:53.000Z,6.986
2023-03-18T20:16:22.000Z,6.251
2023-03-18T20:18:51.000Z,7.575
2023-03-18T20:21:20.000Z,11.473
2023-03-18T20:23:51.000Z,5.486
2023-03-18T20:26:19.000Z,5.449
2023-03-18T20:28:49.000Z,5.397
2023-03-18T20:31:18.000Z,11.71
2023-03-18T20:33:45.000Z,6.297
2023-03-18T20:36:15.000Z,7.795
2023-03-18T20:38:43.000Z,6.338
2023-03-18T20:41:10.000Z,8.673
2023-03-18T20:43:40.000Z,9.014
2023-03-18T20:46:08.000Z,15.098
2023-03-18T20:48:35.000Z,7.608
2023-03-18T20:51:04.000Z,6.217
2023-03-18T20:53:33.000Z,8.258
2023-03-18T20:55:59.000Z,12.705
2023-03-18T20:58:28.000Z,15.385
2023-03-18T21:00:58.000Z,8.354
2023-03-18T21:03:24.000Z,13.218
2023-03-18T21:05:52.000Z,10.04
2023-03-18T21:08:21.000Z,12.094
2023-03-18T21:10:49.000Z,10.103
2023-03-18T21:13:16.000Z,4.989
2023-03-18T21:15:45.000Z,22.571
2023-03-18T21:18:13.000Z,6.189
2023-03-18T21:20:39.000Z,8.048
2023-03-18T21:23:08.000Z,11.485
2023-03-18T21:25:39.000Z,8.231
2023-03-18T21:28:05.000Z,7.931
2023-03-18T21:30:34.000Z,8.224
2023-03-18T21:33:08.000Z,4.922
2023-03-18T21:35:55.000Z,11.986
2023-03-18T21:38:37.000Z,7.999
2023-03-18T21:41:20.000Z,9.427
2023-03-18T21:44:00.000Z,8.999
2023-03-18T21:46:42.000Z,5.287
2023-03-18T21:49:24.000Z,8.71
2023-03-18T21:52:07.000Z,9.957
2023-03-18T21:54:50.000Z,6.987
2023-03-18T21:57:32.000Z,7.27
2023-03-18T22:00:19.000Z,8.813
2023-03-18T22:03:07.000Z,8.021
2023-03-18T22:05:49.000Z,13.591
2023-03-18T22:08:32.000Z,7.99
2023-03-18T22:11:14.000Z,5.366
2023-03-18T22:13:58.000Z,6.776
2023-03-18T22:16:41.000Z,4.313
2023-03-18T22:19:22.000Z,9.514
2023-03-18T22:22:06.000Z,4.926
2023-03-18T22:24:49.000Z,11.349
2023-03-18T22:27:33.000Z,7.672
2023-03-18T22:30:15.000Z,9.464
2023-03-18T22:32:58.000Z,13.674
2023-03-18T22:35:39.000Z,10.696
2023-03-18T22:38:22.000Z,14.819
2023-03-18T22:41:05.000Z,5.434
2023-03-18T22:43:47.000Z,11.473
2023-03-18T22:46:31.000Z,4.698
2023-03-18T22:49:14.000Z,10.113
2023-03-18T22:51:56.000Z,9.402
2023-03-18T22:54:40.000Z,9.51
2023-03-18T22:57:23.000Z,14.603
2023-03-18T23:00:05.000Z,6.752
2023-03-18T23:03:00.000Z,11.396
2023-03-18T23:05:42.000Z,9.088
2023-03-18T23:08:30.000Z,8.827
2023-03-18T23:11:14.000Z,6.918
2023-03-18T23:13:56.000Z,9.569
2023-03-18T23:16:38.000Z,4.872
2023-03-18T23:19:20.000Z,9.93
2023-03-18T23:22:01.000Z,7.736
2023-03-18T23:24:51.000Z,7.419
2023-03-18T23:27:32.000Z,8.681
2023-03-18T23:30:15.000Z,10.408
2023-03-18T23:33:07.000Z,7.604
2023-03-18T23:35:53.000Z,5.688
2023-03-18T23:38:36.000Z,7.849
2023-03-18T23:41:18.000Z,10.854
2023-03-18T23:43:57.000Z,7.325
2023-03-18T23:46:40.000Z,10.677
2023-03-18T23:49:23.000Z,8.085
2023-03-18T23:52:06.000Z,6.221
2023-03-18T23:54:48.000Z,11.662
2023-03-18T23:57:31.000Z,7.476
